createdAt,value
2023-04-09T00:00:06.483Z,100.00
2023-04-09T00:03:18.309Z,100.00
2023-04-09T00:05:42.703Z,100.00
2023-04-09T00:08:09.572Z,100.00
2023-04-09T00:10:36.443Z,100.00
2023-04-09T00:13:06.315Z,100.00
2023-04-09T00:15:33.265Z,100.00
2023-04-09T00:18:03.688Z,100.00
2023-04-09T00:20:30.673Z,100.00
2023-04-09T00:22:58.391Z,100.00
2023-04-09T00:25:25.949Z,100.00
2023-04-09T00:27:53.151Z,100.00
2023-04-09T00:30:20.105Z,100.00
2023-04-09T00:32:47.431Z,100.00
2023-04-09T00:35:14.867Z,100.00
2023-04-09T00:37:41.911Z,100.00
2023-04-09T00:40:09.180Z,100.00
2023-04-09T00:42:42.239Z,100.00
2023-04-09T00:45:10.123Z,100.00
2023-04-09T00:47:40.218Z,100.00
2023-04-09T00:50:11.015Z,100.00
2023-04-09T00:52:38.748Z,100.00
2023-04-09T00:55:19.022Z,100.00
2023-04-09T00:58:13.455Z,100.00
2023-04-09T01:00:49.916Z,100.00
2023-04-09T01:03:32.828Z,100.00
2023-04-09T01:14:46.567Z,100.00
2023-04-09T01:21:39.451Z,100.00
2023-04-09T01:25:13.410Z,100.00
2023-04-09T01:28:14.265Z,100.00
2023-04-09T01:35:05.918Z,100.00
2023-04-09T01:38:40.076Z,100.00
2023-04-09T01:42:16.745Z,100.00
2023-04-09T01:48:26.654Z,100.00
2023-04-09T01:51:58.210Z,100.00
2023-04-09T01:56:00.773Z,100.00
2023-04-09T02:07:59.213Z,100.00
2023-04-09T02:13:21.159Z,100.00
2023-04-09T02:27:51.455Z,100.00
2023-04-09T02:34:51.412Z,100.00
2023-04-09T03:14:58.308Z,100.00
2023-04-09T03:18:32.841Z,100.00
2023-04-09T03:25:25.051Z,100.00
2023-04-09T03:27:54.504Z,100.00
2023-04-09T03:30:21.284Z,100.00
2023-04-09T03:32:48.153Z,100.00
2023-04-09T03:35:14.957Z,100.00
2023-04-09T03:41:39.326Z,100.00
2023-04-09T03:44:29.701Z,100.00
2023-04-09T03:46:57.016Z,100.00
2023-04-09T03:49:23.985Z,100.00
2023-04-09T03:51:50.754Z,100.00
2023-04-09T03:54:17.482Z,100.00
2023-04-09T03:56:44.260Z,100.00
2023-04-09T03:59:11.110Z,100.00
2023-04-09T04:01:38.082Z,100.00
2023-04-09T04:04:05.362Z,100.00
2023-04-09T04:06:35.663Z,100.00
2023-04-09T04:09:03.386Z,100.00
2023-04-09T04:11:33.321Z,100.00
2023-04-09T04:14:03.441Z,100.00
2023-04-09T04:16:33.264Z,100.00
2023-04-09T04:19:00.403Z,100.00
2023-04-09T04:21:39.305Z,100.00
2023-04-09T04:24:06.798Z,100.00
2023-04-09T04:26:33.999Z,100.00
2023-04-09T04:29:18.347Z,100.00
2023-04-09T04:32:00.824Z,100.00
2023-04-09T04:34:31.040Z,100.00
2023-04-09T04:36:58.279Z,100.00
2023-04-09T04:39:26.232Z,100.00
2023-04-09T04:41:58.460Z,100.00
2023-04-09T04:44:28.298Z,100.00
2023-04-09T04:46:57.716Z,100.00
2023-04-09T04:49:46.185Z,100.00
2023-04-09T04:52:26.101Z,100.00
2023-04-09T04:55:02.292Z,100.00
2023-04-09T05:00:56.408Z,100.00
2023-04-09T05:07:15.168Z,100.00
2023-04-09T05:16:49.734Z,100.00
2023-04-09T05:19:16.915Z,100.00
2023-04-09T05:22:10.567Z,100.00
2023-04-09T05:25:47.337Z,100.00
2023-04-09T05:31:53.107Z,100.00
2023-04-09T05:37:24.071Z,100.00
2023-04-09T05:39:52.827Z,100.00
2023-04-09T05:42:19.947Z,100.00
2023-04-09T05:44:50.054Z,100.00
2023-04-09T05:47:17.725Z,100.00
2023-04-09T05:49:44.541Z,100.00
2023-04-09T05:52:11.460Z,100.00
2023-04-09T05:54:41.362Z,99.47
2023-04-09T05:57:08.204Z,99.74
2023-04-09T05:59:47.284Z,99.62
2023-04-09T06:02:14.551Z,100.00
2023-04-09T06:04:41.994Z,97.38
2023-04-09T06:07:12.316Z,96.22
2023-04-09T06:09:45.327Z,95.42
2023-04-09T06:12:12.674Z,94.47
2023-04-09T06:14:40.151Z,94.32
2023-04-09T06:17:10.271Z,92.66
2023-04-09T06:19:37.614Z,90.90
2023-04-09T06:22:06.430Z,92.05
2023-04-09T06:24:46.905Z,91.62
2023-04-09T06:27:22.323Z,91.70
2023-04-09T06:30:02.018Z,91.11
2023-04-09T06:32:33.764Z,90.88
2023-04-09T06:35:15.383Z,89.96
2023-04-09T06:37:45.612Z,88.62
2023-04-09T06:41:41.556Z,90.16
2023-04-09T06:43:14.377Z,87.44
2023-04-09T06:46:05.801Z,88.14
2023-04-09T06:48:33.708Z,85.23
2023-04-09T06:51:03.984Z,82.12
2023-04-09T06:53:57.129Z,81.36
2023-04-09T06:56:37.681Z,80.42
2023-04-09T07:05:28.030Z,77.34
2023-04-09T07:07:57.798Z,73.52
2023-04-09T07:10:30.231Z,70.65
2023-04-09T07:12:57.423Z,71.93
2023-04-09T07:15:53.991Z,71.58
2023-04-09T07:18:23.557Z,68.83
2023-04-09T07:20:59.488Z,67.05
2023-04-09T07:23:26.320Z,66.51
2023-04-09T07:25:56.534Z,65.03
2023-04-09T07:28:27.284Z,64.16
2023-04-09T07:31:06.313Z,64.83
2023-04-09T07:33:36.846Z,64.21
2023-04-09T07:36:09.664Z,63.87
2023-04-09T07:38:36.569Z,62.08
2023-04-09T07:41:16.836Z,63.79
2023-04-09T07:43:51.170Z,61.83
2023-04-09T07:46:22.321Z,62.07
2023-04-09T07:48:51.083Z,61.47
2023-04-09T07:51:50.671Z,59.44
2023-04-09T07:54:17.879Z,61.00
2023-04-09T08:03:08.508Z,58.29
2023-04-09T08:15:22.456Z,53.05
2023-04-09T08:17:25.545Z,52.96
2023-04-09T08:20:21.241Z,54.36
2023-04-09T08:26:40.555Z,55.45
2023-04-09T08:29:42.878Z,56.25
2023-04-09T08:32:16.456Z,54.70
2023-04-09T08:34:49.516Z,51.52
2023-04-09T08:40:51.447Z,54.90
2023-04-09T08:43:57.666Z,56.54
2023-04-09T08:46:26.374Z,57.60
2023-04-09T08:49:40.234Z,57.18
2023-04-09T08:55:45.875Z,58.43
2023-04-09T08:58:17.665Z,59.02
2023-04-09T09:00:45.251Z,59.73
2023-04-09T09:03:30.739Z,59.93
2023-04-09T09:06:06.950Z,58.56
2023-04-09T09:08:42.637Z,51.99
2023-04-09T09:11:12.213Z,52.80
2023-04-09T09:13:45.492Z,52.05
2023-04-09T09:19:10.854Z,52.16
2023-04-09T09:22:12.715Z,48.90
2023-04-09T09:28:15.951Z,46.24
2023-04-09T09:30:49.260Z,48.48
2023-04-09T09:33:38.909Z,47.25
2023-04-09T09:36:06.151Z,47.55
2023-04-09T09:38:34.831Z,47.60
2023-04-09T09:41:34.123Z,45.16
2023-04-09T09:44:30.241Z,45.85
2023-04-09T09:47:31.916Z,47.50
2023-04-09T09:49:58.721Z,46.50
2023-04-09T09:59:56.069Z,43.75
2023-04-09T10:02:31.467Z,45.99
2023-04-09T10:05:27.097Z,45.70
2023-04-09T10:08:07.774Z,47.08
2023-04-09T10:10:39.177Z,45.09
2023-04-09T10:22:44.166Z,44.39
2023-04-09T10:23:03.421Z,43.45
2023-04-09T10:25:22.953Z,44.46
2023-04-09T10:28:03.421Z,44.95
2023-04-09T10:30:48.539Z,44.51
2023-04-09T10:33:26.723Z,45.63
2023-04-09T10:35:56.812Z,43.36
2023-04-09T10:38:37.656Z,44.03
2023-04-09T10:41:36.426Z,44.83
2023-04-09T10:46:52.595Z,43.51
2023-04-09T10:52:45.543Z,44.13
2023-04-09T10:55:36.659Z,44.21
2023-04-09T10:58:13.112Z,43.98
2023-04-09T11:00:43.470Z,41.74
2023-04-09T11:03:22.827Z,42.73
2023-04-09T11:06:01.090Z,44.23
2023-04-09T11:08:41.821Z,43.26
2023-04-09T11:11:17.133Z,40.83
2023-04-09T11:13:47.717Z,41.43
2023-04-09T11:16:24.268Z,41.48
2023-04-09T11:18:54.208Z,41.47
2023-04-09T11:21:24.468Z,42.75
2023-04-09T11:23:54.585Z,41.66
2023-04-09T11:26:36.343Z,43.63
2023-04-09T11:29:09.557Z,43.22
2023-04-09T11:31:48.537Z,43.79
2023-04-09T11:34:51.848Z,43.32
2023-04-09T11:37:22.060Z,41.68
2023-04-09T11:39:51.829Z,40.99
2023-04-09T11:42:22.164Z,41.66
2023-04-09T11:44:56.428Z,41.47
2023-04-09T11:47:24.233Z,38.85
2023-04-09T11:49:50.870Z,39.10
2023-04-09T11:52:29.132Z,39.48
2023-04-09T11:55:04.503Z,38.35
2023-04-09T11:57:43.387Z,39.12
2023-04-09T12:00:17.476Z,38.76
2023-04-09T12:02:51.356Z,39.65
2023-04-09T12:05:29.263Z,38.31
2023-04-09T12:08:11.139Z,37.50
2023-04-09T12:10:39.035Z,37.67
2023-04-09T12:13:08.439Z,39.68
2023-04-09T12:15:37.517Z,40.31
2023-04-09T12:18:07.896Z,39.39
2023-04-09T12:21:04.813Z,40.19
2023-04-09T12:23:32.018Z,37.01
2023-04-09T12:26:02.498Z,38.16
2023-04-09T12:28:29.729Z,37.27
2023-04-09T12:30:58.513Z,37.53
2023-04-09T12:33:25.446Z,35.78
2023-04-09T12:35:52.431Z,36.60
2023-04-09T12:38:19.291Z,36.89
2023-04-09T12:40:51.920Z,36.17
2023-04-09T12:43:18.734Z,37.88
2023-04-09T12:46:04.788Z,36.67
2023-04-09T12:48:31.607Z,36.88
2023-04-09T12:53:55.868Z,35.56
2023-04-09T13:02:36.693Z,38.17
2023-04-09T13:09:14.554Z,36.55
2023-04-09T13:15:55.905Z,37.49
2023-04-09T13:19:10.450Z,38.19
2023-04-09T13:21:40.682Z,36.33
2023-04-09T13:24:38.724Z,37.84
2023-04-09T13:27:06.686Z,37.38
2023-04-09T13:29:42.196Z,38.55
2023-04-09T13:32:11.311Z,38.72
2023-04-09T13:34:39.747Z,38.83
2023-04-09T13:37:07.502Z,38.77
2023-04-09T13:39:37.829Z,40.79
2023-04-09T13:42:12.547Z,42.26
2023-04-09T13:44:42.726Z,40.37
2023-04-09T13:47:14.554Z,40.14
2023-04-09T13:49:43.705Z,40.28
2023-04-09T13:52:11.805Z,38.99
2023-04-09T13:54:38.909Z,39.35
2023-04-09T13:57:16.376Z,39.25
2023-04-09T13:59:44.152Z,39.52
2023-04-09T14:02:11.190Z,39.99
2023-04-09T14:04:38.409Z,41.56
2023-04-09T14:07:05.379Z,39.33
2023-04-09T14:09:41.833Z,40.08
2023-04-09T14:12:08.795Z,40.65
2023-04-09T14:14:36.235Z,41.51
2023-04-09T14:17:04.704Z,39.38
2023-04-09T14:19:31.685Z,41.54
2023-04-09T14:22:05.038Z,41.98
2023-04-09T14:24:40.383Z,39.63
2023-04-09T14:27:09.639Z,40.24
2023-04-09T14:29:44.375Z,41.34
2023-04-09T14:32:19.215Z,39.35
2023-04-09T14:34:46.241Z,40.44
2023-04-09T14:37:13.168Z,40.46
2023-04-09T14:39:40.060Z,41.06
2023-04-09T14:42:06.891Z,42.00
2023-04-09T14:45:07.542Z,42.35
2023-04-09T14:48:03.173Z,41.93
2023-04-09T14:51:14.870Z,40.48
2023-04-09T14:53:44.460Z,41.36
2023-04-09T14:56:11.604Z,42.12
2023-04-09T14:58:38.792Z,40.60
2023-04-09T15:01:06.146Z,42.24
2023-04-09T15:03:33.636Z,42.14
2023-04-09T15:06:01.400Z,43.08
2023-04-09T15:08:28.885Z,41.22
2023-04-09T15:10:57.676Z,42.54
2023-04-09T15:13:27.765Z,41.84
2023-04-09T15:15:54.878Z,43.90
2023-04-09T15:18:21.932Z,42.29
2023-04-09T15:20:51.704Z,42.05
2023-04-09T15:23:23.434Z,41.82
2023-04-09T15:26:08.773Z,40.50
2023-04-09T15:28:38.799Z,41.57
2023-04-09T15:31:14.414Z,41.82
2023-04-09T15:33:45.691Z,40.99
2023-04-09T15:36:43.390Z,42.81
2023-04-09T15:39:06.855Z,40.93
2023-04-09T15:41:34.117Z,42.17
2023-04-09T15:44:06.448Z,42.33
2023-04-09T15:46:33.344Z,43.10
2023-04-09T15:52:47.044Z,45.63
2023-04-09T15:55:14.434Z,43.01
2023-04-09T15:57:41.491Z,43.63
2023-04-09T16:00:10.316Z,43.67
2023-04-09T16:02:39.155Z,43.55
2023-04-09T16:05:07.190Z,44.40
2023-04-09T16:07:34.255Z,44.75
2023-04-09T16:10:02.250Z,44.36
2023-04-09T16:12:28.903Z,44.00
2023-04-09T16:14:55.870Z,45.78
2023-04-09T16:17:28.331Z,46.54
2023-04-09T16:20:18.815Z,44.69
2023-04-09T16:23:02.036Z,44.62
2023-04-09T16:25:31.955Z,45.77
2023-04-09T16:28:11.010Z,46.08
2023-04-09T16:30:38.455Z,45.76
2023-04-09T16:33:05.724Z,46.29
2023-04-09T16:35:36.733Z,46.67
2023-04-09T16:38:16.948Z,46.70
2023-04-09T16:40:51.848Z,47.44
2023-04-09T16:43:18.784Z,47.93
2023-04-09T16:45:48.425Z,46.79
2023-04-09T16:48:15.740Z,48.71
2023-04-09T16:54:31.321Z,47.22
2023-04-09T17:04:45.353Z,49.40
2023-04-09T17:07:12.579Z,49.52
2023-04-09T17:09:39.486Z,49.46
2023-04-09T17:12:38.364Z,50.49
2023-04-09T17:18:12.595Z,54.17
2023-04-09T17:23:51.000Z,59.17
2023-04-09T17:26:24.410Z,58.79
2023-04-09T17:29:00.694Z,60.05
2023-04-09T17:31:35.337Z,59.49
2023-04-09T17:34:27.968Z,61.03
2023-04-09T17:37:05.898Z,59.95
2023-04-09T17:44:56.764Z,63.89
2023-04-09T18:44:12.546Z,75.38
2023-04-09T19:11:07.263Z,76.40
2023-04-09T19:18:19.567Z,76.00
2023-04-09T19:20:33.733Z,76.17
2023-04-09T19:30:18.513Z,78.74
2023-04-09T19:39:20.233Z,79.46
2023-04-09T19:42:23.695Z,79.66
2023-04-09T19:49:12.452Z,80.70
2023-04-09T19:52:01.781Z,80.52
2023-04-09T19:57:55.188Z,81.22
2023-04-09T20:04:47.459Z,82.00
2023-04-09T20:19:29.795Z,83.09
2023-04-09T20:22:07.568Z,83.66
2023-04-09T20:23:55.050Z,83.95
2023-04-09T20:30:09.487Z,83.71
2023-04-09T20:44:01.127Z,84.93
2023-04-09T20:44:12.295Z,84.61
2023-04-09T20:46:32.908Z,85.19
2023-04-09T20:49:07.931Z,85.37
2023-04-09T20:51:59.858Z,85.50
2023-04-09T20:54:38.824Z,86.12
2023-04-09T20:58:24.170Z,85.64
2023-04-09T21:00:20.671Z,85.94
2023-04-09T21:02:57.460Z,86.03
2023-04-09T21:05:32.378Z,86.19
2023-04-09T21:08:02.668Z,86.57
2023-04-09T21:10:51.256Z,86.54
2023-04-09T21:13:22.764Z,86.52
2023-04-09T21:22:35.103Z,86.72
2023-04-09T21:28:12.753Z,88.12
2023-04-09T21:30:44.475Z,88.18
2023-04-09T21:36:06.683Z,88.15
2023-04-09T21:38:38.158Z,87.80
2023-04-09T21:41:15.425Z,88.22
2023-04-09T21:44:10.883Z,88.02
2023-04-09T21:46:54.656Z,88.45
2023-04-09T21:49:39.964Z,89.04
2023-04-09T21:55:11.626Z,89.12
2023-04-09T21:57:56.152Z,89.99
2023-04-09T22:00:32.813Z,89.72
2023-04-09T22:06:59.853Z,89.76
2023-04-09T22:10:01.840Z,89.26
2023-04-09T22:16:08.265Z,90.31
2023-04-09T22:26:53.413Z,89.14
2023-04-09T22:30:01.337Z,89.67
2023-04-09T22:36:31.162Z,90.89
2023-04-09T22:38:59.451Z,92.21
2023-04-09T22:41:36.373Z,91.62
2023-04-09T22:44:18.667Z,91.65
2023-04-09T22:47:18.434Z,90.78
2023-04-09T22:50:03.129Z,91.62
2023-04-09T22:52:50.194Z,91.53
2023-04-09T22:55:26.584Z,92.13
2023-04-09T22:58:06.462Z,92.48
2023-04-09T23:00:44.321Z,92.09
2023-04-09T23:10:43.111Z,92.71
2023-04-09T23:13:18.293Z,92.20
2023-04-09T23:16:26.182Z,92.33
2023-04-09T23:18:40.174Z,92.86
2023-04-09T23:21:19.052Z,92.79
2023-04-09T23:25:03.168Z,92.74
2023-04-09T23:27:30.216Z,93.02
2023-04-09T23:31:08.478Z,92.21
2023-04-09T23:33:47.974Z,93.26
2023-04-09T23:36:41.428Z,92.78
2023-04-09T23:39:31.452Z,92.58
2023-04-09T23:45:47.299Z,92.89
2023-04-09T23:48:20.053Z,93.30
2023-04-09T23:50:49.212Z,92.48
2023-04-09T23:53:20.763Z,93.31
2023-04-09T23:59:43.487Z,93.94
